ANA752 RJNK-RJTT
Flight info
| Callsign | ANA752 |
|---|---|
| Flight time | 0h 49m |
| Altitude | 21000 |
| Route | OHNNO Y383 KCC Y295 GAKKI Y71 XAC |
| Aircraft | A21N/M-SDE2FGHIJ3J4LORVWXY/LB1 |
Departure
| Time | 2026-05-05 03:58 |
|---|---|
| Airport | Komatsu Airport / JASDF Komatsu Air Base (RJNK) |
Arrival
| Time | 2026-05-05 04:47 |
|---|---|
| Airport | Tokyo Haneda International Airport (RJTT) |
| Time | Latitude | Longitude | Altitude | Speed | Heading |
|---|---|---|---|---|---|
| 2026-05-05 03:21 | 36.40113 | 136.41372 | 31 ft | 0 kts | 325° |
| 2026-05-05 03:49 | 36.40113 | 136.41373 | 31 ft | 1 kts | 325° |
| 2026-05-05 03:49 | 36.40100 | 136.41384 | 30 ft | 3 kts | 325° |
| 2026-05-05 03:50 | 36.40083 | 136.41398 | 31 ft | 3 kts | 325° |
| 2026-05-05 03:50 | 36.40067 | 136.41412 | 32 ft | 2 kts | 325° |
| 2026-05-05 03:50 | 36.40053 | 136.41422 | 32 ft | 3 kts | 346° |
| 2026-05-05 03:50 | 36.40037 | 136.41422 | 32 ft | 3 kts | 31° |
| 2026-05-05 03:51 | 36.40023 | 136.41406 | 32 ft | 3 kts | 54° |
| 2026-05-05 03:51 | 36.40017 | 136.41397 | 31 ft | 1 kts | 56° |
| 2026-05-05 03:51 | 36.40017 | 136.41395 | 31 ft | 0 kts | 56° |
| 2026-05-05 03:54 | 36.40017 | 136.41396 | 31 ft | 1 kts | 56° |
| 2026-05-05 03:55 | 36.40032 | 136.41423 | 32 ft | 7 kts | 56° |
| 2026-05-05 03:55 | 36.40066 | 136.41487 | 34 ft | 11 kts | 56° |
| 2026-05-05 03:55 | 36.40116 | 136.41572 | 35 ft | 13 kts | 55° |
| 2026-05-05 03:55 | 36.40173 | 136.41673 | 35 ft | 15 kts | 55° |
| 2026-05-05 03:56 | 36.40216 | 136.41767 | 37 ft | 13 kts | 83° |
| 2026-05-05 03:56 | 36.40182 | 136.41854 | 40 ft | 9 kts | 142° |
| 2026-05-05 03:56 | 36.40125 | 136.41903 | 40 ft | 11 kts | 147° |
| 2026-05-05 03:56 | 36.40071 | 136.41934 | 39 ft | 8 kts | 183° |
| 2026-05-05 03:57 | 36.40022 | 136.41884 | 39 ft | 10 kts | 235° |
| 2026-05-05 03:57 | 36.39954 | 136.41763 | 39 ft | 40 kts | 235° |
| 2026-05-05 03:57 | 36.39636 | 136.41185 | 38 ft | 118 kts | 236° |
| 2026-05-05 03:57 | 36.39058 | 136.40151 | 141 ft | 161 kts | 238° |
| 2026-05-05 03:58 | 36.38436 | 136.39058 | 968 ft | 153 kts | 236° |
| 2026-05-05 03:58 | 36.37806 | 136.37982 | 1640 ft | 156 kts | 236° |
| 2026-05-05 03:58 | 36.37171 | 136.36857 | 2265 ft | 161 kts | 236° |
| 2026-05-05 03:58 | 36.36523 | 136.35708 | 2913 ft | 164 kts | 234° |
| 2026-05-05 03:59 | 36.35830 | 136.34484 | 3358 ft | 188 kts | 233° |
| 2026-05-05 03:59 | 36.35015 | 136.33045 | 3689 ft | 220 kts | 232° |
| 2026-05-05 03:59 | 36.34077 | 136.31390 | 4160 ft | 247 kts | 232° |
| 2026-05-05 03:59 | 36.33059 | 136.29584 | 4853 ft | 262 kts | 233° |
| 2026-05-05 04:00 | 36.31922 | 136.27798 | 5709 ft | 266 kts | 220° |
| 2026-05-05 04:00 | 36.30333 | 136.26631 | 6636 ft | 268 kts | 198° |
| 2026-05-05 04:00 | 36.28481 | 136.26392 | 7493 ft | 274 kts | 175° |
| 2026-05-05 04:00 | 36.26657 | 136.27148 | 8279 ft | 283 kts | 149° |
| 2026-05-05 04:01 | 36.25223 | 136.28836 | 9042 ft | 292 kts | 123° |
| 2026-05-05 04:01 | 36.24452 | 136.31170 | 9839 ft | 297 kts | 103° |
| 2026-05-05 04:01 | 36.24024 | 136.33730 | 10401 ft | 313 kts | 101° |
| 2026-05-05 04:01 | 36.23312 | 136.36367 | 10704 ft | 335 kts | 120° |
| 2026-05-05 04:02 | 36.21769 | 136.38610 | 10992 ft | 354 kts | 142° |
| 2026-05-05 04:02 | 36.19625 | 136.40266 | 11272 ft | 372 kts | 153° |
| 2026-05-05 04:02 | 36.17295 | 136.41836 | 11637 ft | 388 kts | 152° |
| 2026-05-05 04:02 | 36.14935 | 136.43519 | 12282 ft | 394 kts | 150° |
| 2026-05-05 04:03 | 36.12584 | 136.45278 | 12980 ft | 398 kts | 149° |
| 2026-05-05 04:03 | 36.10210 | 136.47099 | 13654 ft | 403 kts | 149° |
| 2026-05-05 04:03 | 36.07820 | 136.48950 | 14278 ft | 408 kts | 149° |
| 2026-05-05 04:03 | 36.05408 | 136.50816 | 14873 ft | 411 kts | 149° |
| 2026-05-05 04:04 | 36.02968 | 136.52702 | 15492 ft | 415 kts | 149° |
| 2026-05-05 04:04 | 36.00509 | 136.54602 | 16121 ft | 418 kts | 149° |
| 2026-05-05 04:04 | 35.98065 | 136.56492 | 16766 ft | 421 kts | 149° |
| 2026-05-05 04:04 | 35.95570 | 136.58428 | 17410 ft | 425 kts | 150° |
| 2026-05-05 04:05 | 35.93053 | 136.60369 | 18025 ft | 429 kts | 150° |
| 2026-05-05 04:05 | 35.90507 | 136.62319 | 18596 ft | 432 kts | 151° |
| 2026-05-05 04:05 | 35.87837 | 136.63983 | 19112 ft | 432 kts | 160° |
| 2026-05-05 04:05 | 35.85015 | 136.65305 | 19632 ft | 434 kts | 162° |
| 2026-05-05 04:06 | 35.82167 | 136.66583 | 20162 ft | 437 kts | 163° |
| 2026-05-05 04:06 | 35.79300 | 136.67865 | 20684 ft | 440 kts | 163° |
| 2026-05-05 04:06 | 35.76414 | 136.69158 | 21081 ft | 442 kts | 163° |
| 2026-05-05 04:06 | 35.73516 | 136.70460 | 21190 ft | 446 kts | 163° |
| 2026-05-05 04:07 | 35.70601 | 136.71770 | 21206 ft | 446 kts | 163° |
| 2026-05-05 04:07 | 35.67682 | 136.73087 | 21189 ft | 446 kts | 163° |
| 2026-05-05 04:07 | 35.64760 | 136.74402 | 21181 ft | 447 kts | 163° |
| 2026-05-05 04:07 | 35.61840 | 136.75707 | 21176 ft | 447 kts | 163° |
| 2026-05-05 04:08 | 35.58921 | 136.77014 | 21177 ft | 447 kts | 163° |
| 2026-05-05 04:08 | 35.55998 | 136.78322 | 21181 ft | 448 kts | 163° |
| 2026-05-05 04:08 | 35.53065 | 136.79633 | 21171 ft | 448 kts | 163° |
| 2026-05-05 04:08 | 35.50139 | 136.80940 | 21179 ft | 447 kts | 163° |
| 2026-05-05 04:09 | 35.47213 | 136.82245 | 21178 ft | 446 kts | 163° |
| 2026-05-05 04:09 | 35.44266 | 136.83562 | 21181 ft | 458 kts | 163° |
| 2026-05-05 04:09 | 35.41233 | 136.84915 | 21187 ft | 470 kts | 163° |
| 2026-05-05 04:09 | 35.38158 | 136.86297 | 21184 ft | 471 kts | 163° |
| 2026-05-05 04:10 | 35.35077 | 136.87679 | 21182 ft | 471 kts | 163° |
| 2026-05-05 04:10 | 35.32036 | 136.89038 | 21182 ft | 471 kts | 163° |
| 2026-05-05 04:10 | 35.28979 | 136.90497 | 21177 ft | 473 kts | 158° |
| 2026-05-05 04:10 | 35.26157 | 136.92603 | 21175 ft | 479 kts | 144° |
| 2026-05-05 04:11 | 35.23780 | 136.95467 | 21173 ft | 483 kts | 132° |
| 2026-05-05 04:11 | 35.21659 | 136.98662 | 21192 ft | 483 kts | 130° |
| 2026-05-05 04:11 | 35.19563 | 137.01878 | 21186 ft | 483 kts | 130° |
| 2026-05-05 04:11 | 35.17455 | 137.05070 | 21184 ft | 483 kts | 131° |
| 2026-05-05 04:12 | 35.15305 | 137.08236 | 21186 ft | 483 kts | 132° |
| 2026-05-05 04:12 | 35.13875 | 137.10325 | 21185 ft | 483 kts | 132° |
| 2026-05-05 04:12 | 35.11720 | 137.13472 | 21178 ft | 483 kts | 132° |
| 2026-05-05 04:12 | 35.09562 | 137.16625 | 21186 ft | 483 kts | 132° |
| 2026-05-05 04:13 | 35.07410 | 137.19773 | 21190 ft | 483 kts | 132° |
| 2026-05-05 04:13 | 35.05258 | 137.22924 | 21190 ft | 483 kts | 132° |
| 2026-05-05 04:13 | 35.03117 | 137.26092 | 21193 ft | 483 kts | 131° |
| 2026-05-05 04:13 | 35.00993 | 137.29262 | 21185 ft | 483 kts | 131° |
| 2026-05-05 04:14 | 34.98865 | 137.32434 | 21193 ft | 483 kts | 131° |
| 2026-05-05 04:14 | 34.96735 | 137.35602 | 21195 ft | 483 kts | 131° |
| 2026-05-05 04:14 | 34.94603 | 137.38769 | 21198 ft | 483 kts | 131° |
| 2026-05-05 04:14 | 34.92470 | 137.41935 | 21202 ft | 484 kts | 132° |
| 2026-05-05 04:15 | 34.90327 | 137.45110 | 21200 ft | 484 kts | 132° |
| 2026-05-05 04:15 | 34.88189 | 137.48271 | 21196 ft | 483 kts | 132° |
| 2026-05-05 04:15 | 34.86050 | 137.51430 | 21204 ft | 483 kts | 132° |
| 2026-05-05 04:15 | 34.83922 | 137.54575 | 21211 ft | 483 kts | 132° |
| 2026-05-05 04:16 | 34.81783 | 137.57742 | 21214 ft | 483 kts | 132° |
| 2026-05-05 04:16 | 34.79646 | 137.60897 | 21214 ft | 483 kts | 132° |
| 2026-05-05 04:16 | 34.77505 | 137.64070 | 21214 ft | 485 kts | 131° |
| 2026-05-05 04:16 | 34.75651 | 137.67505 | 21209 ft | 489 kts | 119° |
| 2026-05-05 04:17 | 34.74488 | 137.71382 | 21216 ft | 492 kts | 104° |
| 2026-05-05 04:17 | 34.73999 | 137.75504 | 21228 ft | 493 kts | 97° |
| 2026-05-05 04:17 | 34.73641 | 137.79653 | 21225 ft | 493 kts | 96° |
| 2026-05-05 04:17 | 34.73277 | 137.83793 | 21226 ft | 494 kts | 96° |
| 2026-05-05 04:18 | 34.72894 | 137.87939 | 21224 ft | 494 kts | 97° |
| 2026-05-05 04:18 | 34.72497 | 137.92091 | 21223 ft | 494 kts | 97° |
| 2026-05-05 04:18 | 34.72097 | 137.96244 | 21218 ft | 494 kts | 97° |
| 2026-05-05 04:18 | 34.71696 | 138.00385 | 21222 ft | 494 kts | 97° |
| 2026-05-05 04:19 | 34.71439 | 138.04568 | 21230 ft | 496 kts | 91° |
| 2026-05-05 04:19 | 34.71448 | 138.08702 | 21229 ft | 496 kts | 90° |
| 2026-05-05 04:19 | 34.71471 | 138.12886 | 21235 ft | 496 kts | 90° |
| 2026-05-05 04:19 | 34.71491 | 138.17083 | 21229 ft | 497 kts | 90° |
| 2026-05-05 04:20 | 34.71505 | 138.21284 | 21228 ft | 496 kts | 90° |
| 2026-05-05 04:20 | 34.71517 | 138.25482 | 21229 ft | 497 kts | 90° |
| 2026-05-05 04:20 | 34.71530 | 138.29678 | 21229 ft | 498 kts | 90° |
| 2026-05-05 04:20 | 34.71541 | 138.33890 | 21236 ft | 498 kts | 90° |
| 2026-05-05 04:21 | 34.71547 | 138.38095 | 21230 ft | 498 kts | 90° |
| 2026-05-05 04:21 | 34.71556 | 138.42308 | 21224 ft | 499 kts | 90° |
| 2026-05-05 04:21 | 34.71560 | 138.46529 | 21230 ft | 500 kts | 90° |
| 2026-05-05 04:21 | 34.71562 | 138.50750 | 21232 ft | 501 kts | 90° |
| 2026-05-05 04:22 | 34.71568 | 138.54986 | 21236 ft | 501 kts | 90° |
| 2026-05-05 04:22 | 34.71572 | 138.59217 | 21230 ft | 501 kts | 90° |
| 2026-05-05 04:22 | 34.71569 | 138.63449 | 21230 ft | 501 kts | 90° |
| 2026-05-05 04:22 | 34.71566 | 138.67682 | 21235 ft | 501 kts | 90° |
| 2026-05-05 04:23 | 34.71565 | 138.71911 | 21236 ft | 501 kts | 90° |
| 2026-05-05 04:23 | 34.71567 | 138.76149 | 21237 ft | 501 kts | 90° |
| 2026-05-05 04:23 | 34.71564 | 138.80384 | 21237 ft | 501 kts | 90° |
| 2026-05-05 04:23 | 34.71634 | 138.84620 | 21229 ft | 500 kts | 84° |
| 2026-05-05 04:24 | 34.72365 | 138.88644 | 21128 ft | 478 kts | 70° |
| 2026-05-05 04:24 | 34.73544 | 138.92390 | 20764 ft | 472 kts | 66° |
| 2026-05-05 04:24 | 34.74754 | 138.96075 | 20339 ft | 465 kts | 66° |
| 2026-05-05 04:25 | 34.77012 | 139.03324 | 19469 ft | 451 kts | 68° |
| 2026-05-05 04:25 | 34.78089 | 139.06880 | 19038 ft | 444 kts | 68° |
| 2026-05-05 04:25 | 34.79148 | 139.10379 | 18621 ft | 438 kts | 68° |
| 2026-05-05 04:25 | 34.80192 | 139.13840 | 18158 ft | 433 kts | 67° |
| 2026-05-05 04:26 | 34.81223 | 139.17269 | 17676 ft | 429 kts | 68° |
| 2026-05-05 04:26 | 34.82244 | 139.20667 | 17195 ft | 425 kts | 68° |
| 2026-05-05 04:26 | 34.83259 | 139.24041 | 16774 ft | 422 kts | 67° |
| 2026-05-05 04:26 | 34.84255 | 139.27343 | 16380 ft | 419 kts | 67° |
| 2026-05-05 04:27 | 34.85255 | 139.30663 | 16003 ft | 416 kts | 67° |
| 2026-05-05 04:27 | 34.86268 | 139.34004 | 15629 ft | 413 kts | 66° |
| 2026-05-05 04:27 | 34.87633 | 139.36980 | 15260 ft | 406 kts | 52° |
| 2026-05-05 04:27 | 34.89321 | 139.39775 | 14901 ft | 403 kts | 50° |
| 2026-05-05 04:28 | 34.90971 | 139.42470 | 14589 ft | 401 kts | 51° |
| 2026-05-05 04:28 | 34.92621 | 139.45196 | 14298 ft | 399 kts | 51° |
| 2026-05-05 04:28 | 34.94247 | 139.47928 | 14016 ft | 397 kts | 51° |
| 2026-05-05 04:28 | 34.95852 | 139.50651 | 13711 ft | 395 kts | 52° |
| 2026-05-05 04:29 | 34.97454 | 139.53376 | 13408 ft | 394 kts | 51° |
| 2026-05-05 04:29 | 34.99044 | 139.56084 | 13103 ft | 393 kts | 52° |
| 2026-05-05 04:29 | 35.00629 | 139.58788 | 12787 ft | 391 kts | 52° |
| 2026-05-05 04:29 | 35.02209 | 139.61483 | 12496 ft | 389 kts | 52° |
| 2026-05-05 04:30 | 35.03782 | 139.64170 | 12194 ft | 388 kts | 52° |
| 2026-05-05 04:30 | 35.05345 | 139.66849 | 11898 ft | 386 kts | 52° |
| 2026-05-05 04:30 | 35.06897 | 139.69517 | 11603 ft | 385 kts | 52° |
| 2026-05-05 04:30 | 35.08454 | 139.72166 | 11308 ft | 383 kts | 52° |
| 2026-05-05 04:31 | 35.10004 | 139.74804 | 11025 ft | 382 kts | 52° |
| 2026-05-05 04:31 | 35.11541 | 139.77430 | 10734 ft | 379 kts | 52° |
| 2026-05-05 04:31 | 35.13072 | 139.80047 | 10453 ft | 377 kts | 52° |
| 2026-05-05 04:31 | 35.14573 | 139.82625 | 10168 ft | 365 kts | 52° |
| 2026-05-05 04:32 | 35.16009 | 139.85098 | 9999 ft | 347 kts | 52° |
| 2026-05-05 04:32 | 35.17365 | 139.87432 | 9978 ft | 325 kts | 52° |
| 2026-05-05 04:32 | 35.18625 | 139.89606 | 9982 ft | 304 kts | 52° |
| 2026-05-05 04:32 | 35.19805 | 139.91650 | 9985 ft | 285 kts | 52° |
| 2026-05-05 04:33 | 35.20943 | 139.93615 | 9997 ft | 282 kts | 52° |
| 2026-05-05 04:33 | 35.22245 | 139.95377 | 10002 ft | 278 kts | 35° |
| 2026-05-05 04:33 | 35.23814 | 139.96689 | 10012 ft | 277 kts | 30° |
| 2026-05-05 04:33 | 35.25427 | 139.97948 | 10008 ft | 273 kts | 29° |
| 2026-05-05 04:34 | 35.27026 | 139.99200 | 10012 ft | 273 kts | 29° |
| 2026-05-05 04:34 | 35.28627 | 140.00467 | 10012 ft | 274 kts | 29° |
| 2026-05-05 04:34 | 35.30216 | 140.01739 | 10010 ft | 274 kts | 30° |
| 2026-05-05 04:34 | 35.31812 | 140.03025 | 10009 ft | 274 kts | 30° |
| 2026-05-05 04:35 | 35.33403 | 140.04309 | 10008 ft | 274 kts | 30° |
| 2026-05-05 04:35 | 35.34996 | 140.05598 | 9935 ft | 274 kts | 30° |
| 2026-05-05 04:35 | 35.36583 | 140.06888 | 9718 ft | 273 kts | 30° |
| 2026-05-05 04:35 | 35.38165 | 140.08174 | 9475 ft | 272 kts | 30° |
| 2026-05-05 04:36 | 35.39732 | 140.09448 | 9202 ft | 267 kts | 30° |
| 2026-05-05 04:36 | 35.41258 | 140.10691 | 8906 ft | 260 kts | 30° |
| 2026-05-05 04:36 | 35.42746 | 140.11903 | 8594 ft | 255 kts | 30° |
| 2026-05-05 04:36 | 35.44214 | 140.13099 | 8294 ft | 250 kts | 31° |
| 2026-05-05 04:37 | 35.45651 | 140.14269 | 8000 ft | 246 kts | 31° |
| 2026-05-05 04:37 | 35.47060 | 140.15421 | 7743 ft | 239 kts | 31° |
| 2026-05-05 04:37 | 35.48405 | 140.16521 | 7522 ft | 232 kts | 31° |
| 2026-05-05 04:37 | 35.49746 | 140.17611 | 7324 ft | 231 kts | 31° |
| 2026-05-05 04:38 | 35.51085 | 140.18703 | 7123 ft | 231 kts | 31° |
| 2026-05-05 04:38 | 35.52427 | 140.19774 | 6987 ft | 229 kts | 25° |
| 2026-05-05 04:38 | 35.53948 | 140.20187 | 6885 ft | 225 kts | 353° |
| 2026-05-05 04:38 | 35.55455 | 140.19764 | 6538 ft | 221 kts | 341° |
| 2026-05-05 04:39 | 35.56912 | 140.19197 | 6241 ft | 216 kts | 341° |
| 2026-05-05 04:39 | 35.58265 | 140.18479 | 5985 ft | 209 kts | 325° |
| 2026-05-05 04:39 | 35.59236 | 140.17186 | 5756 ft | 205 kts | 301° |
| 2026-05-05 04:39 | 35.59901 | 140.15679 | 5531 ft | 196 kts | 298° |
| 2026-05-05 04:40 | 35.60446 | 140.14141 | 5461 ft | 198 kts | 285° |
| 2026-05-05 04:40 | 35.60580 | 140.12461 | 5225 ft | 198 kts | 270° |
| 2026-05-05 04:40 | 35.60535 | 140.10772 | 5002 ft | 198 kts | 268° |
| 2026-05-05 04:40 | 35.60455 | 140.09101 | 4970 ft | 198 kts | 268° |
| 2026-05-05 04:41 | 35.60395 | 140.07388 | 4921 ft | 198 kts | 270° |
| 2026-05-05 04:41 | 35.60382 | 140.05738 | 4731 ft | 190 kts | 271° |
| 2026-05-05 04:41 | 35.60380 | 140.04133 | 4524 ft | 187 kts | 271° |
| 2026-05-05 04:41 | 35.60379 | 140.02517 | 4254 ft | 187 kts | 271° |
| 2026-05-05 04:42 | 35.60380 | 140.00912 | 3980 ft | 189 kts | 270° |
| 2026-05-05 04:42 | 35.60380 | 139.99315 | 3708 ft | 190 kts | 270° |
| 2026-05-05 04:42 | 35.60380 | 139.97685 | 3433 ft | 190 kts | 270° |
| 2026-05-05 04:42 | 35.60380 | 139.96080 | 3143 ft | 186 kts | 270° |
| 2026-05-05 04:43 | 35.60380 | 139.94508 | 2856 ft | 182 kts | 270° |
| 2026-05-05 04:43 | 35.60381 | 139.92963 | 2570 ft | 179 kts | 270° |
| 2026-05-05 04:43 | 35.60381 | 139.91449 | 2291 ft | 174 kts | 270° |
| 2026-05-05 04:43 | 35.60381 | 139.89990 | 2000 ft | 169 kts | 270° |
| 2026-05-05 04:44 | 35.60381 | 139.88548 | 1713 ft | 168 kts | 270° |
| 2026-05-05 04:44 | 35.60381 | 139.87128 | 1433 ft | 165 kts | 270° |
| 2026-05-05 04:44 | 35.60384 | 139.85772 | 1228 ft | 147 kts | 270° |
| 2026-05-05 04:44 | 35.60356 | 139.84565 | 1063 ft | 139 kts | 268° |
| 2026-05-05 04:45 | 35.60327 | 139.83374 | 898 ft | 140 kts | 268° |
| 2026-05-05 04:45 | 35.60262 | 139.82188 | 795 ft | 138 kts | 259° |
| 2026-05-05 04:45 | 35.59934 | 139.81083 | 774 ft | 138 kts | 240° |
| 2026-05-05 04:45 | 35.59364 | 139.80146 | 696 ft | 137 kts | 225° |
| 2026-05-05 04:46 | 35.58660 | 139.79375 | 527 ft | 137 kts | 215° |
| 2026-05-05 04:46 | 35.57889 | 139.78697 | 351 ft | 136 kts | 212° |
| 2026-05-05 04:46 | 35.57110 | 139.78022 | 179 ft | 138 kts | 212° |
| 2026-05-05 04:46 | 35.56324 | 139.77351 | 42 ft | 134 kts | 212° |
| 2026-05-05 04:47 | 35.55752 | 139.76859 | 32 ft | 58 kts | 214° |
| 2026-05-05 04:47 | 35.55548 | 139.76688 | 31 ft | 25 kts | 206° |
| 2026-05-05 04:47 | 35.55401 | 139.76635 | 29 ft | 17 kts | 191° |
| 2026-05-05 04:47 | 35.55328 | 139.76621 | 28 ft | 9 kts | 176° |
| 2026-05-05 04:48 | 35.55281 | 139.76678 | 27 ft | 11 kts | 102° |
| 2026-05-05 04:48 | 35.55330 | 139.76766 | 29 ft | 15 kts | 35° |
| 2026-05-05 04:48 | 35.55421 | 139.76843 | 29 ft | 17 kts | 34° |
| 2026-05-05 04:48 | 35.55524 | 139.76932 | 29 ft | 19 kts | 36° |
| 2026-05-05 04:49 | 35.55638 | 139.77032 | 28 ft | 21 kts | 36° |
| 2026-05-05 04:49 | 35.55766 | 139.77140 | 30 ft | 23 kts | 34° |
| 2026-05-05 04:49 | 35.55883 | 139.77239 | 30 ft | 17 kts | 34° |
| 2026-05-05 04:49 | 35.55963 | 139.77361 | 30 ft | 20 kts | 57° |
| 2026-05-05 04:50 | 35.56030 | 139.77511 | 29 ft | 21 kts | 61° |
| 2026-05-05 04:50 | 35.56109 | 139.77670 | 29 ft | 22 kts | 60° |
| 2026-05-05 04:50 | 35.56186 | 139.77839 | 31 ft | 24 kts | 59° |
| 2026-05-05 04:50 | 35.56273 | 139.78019 | 31 ft | 22 kts | 59° |
| 2026-05-05 04:51 | 35.56342 | 139.78165 | 31 ft | 21 kts | 61° |
| 2026-05-05 04:51 | 35.56400 | 139.78292 | 31 ft | 10 kts | 60° |
| 2026-05-05 04:51 | 35.56421 | 139.78378 | 30 ft | 12 kts | 114° |
| 2026-05-05 04:51 | 35.56345 | 139.78445 | 31 ft | 15 kts | 150° |
| 2026-05-05 04:52 | 35.56251 | 139.78512 | 30 ft | 17 kts | 150° |
| 2026-05-05 04:52 | 35.56145 | 139.78587 | 29 ft | 18 kts | 150° |
| 2026-05-05 04:52 | 35.56029 | 139.78669 | 28 ft | 20 kts | 150° |
| 2026-05-05 04:52 | 35.55902 | 139.78760 | 28 ft | 22 kts | 150° |
| 2026-05-05 04:53 | 35.55763 | 139.78858 | 29 ft | 24 kts | 150° |
| 2026-05-05 04:53 | 35.55612 | 139.78966 | 31 ft | 24 kts | 150° |
| 2026-05-05 04:53 | 35.55474 | 139.79064 | 31 ft | 24 kts | 149° |
| 2026-05-05 04:53 | 35.55371 | 139.79137 | 32 ft | 12 kts | 150° |
| 2026-05-05 04:54 | 35.55316 | 139.79176 | 32 ft | 9 kts | 151° |
| 2026-05-05 04:54 | 35.55256 | 139.79158 | 32 ft | 11 kts | 235° |
| 2026-05-05 04:54 | 35.55221 | 139.79086 | 33 ft | 7 kts | 242° |
| 2026-05-05 04:54 | 35.55221 | 139.79020 | 33 ft | 7 kts | 309° |
| 2026-05-05 04:55 | 35.55263 | 139.79008 | 33 ft | 7 kts | 41° |
| 2026-05-05 04:55 | 35.55281 | 139.79038 | 33 ft | 4 kts | 59° |
| 2026-05-05 04:55 | 35.55288 | 139.79052 | 33 ft | 0 kts | 60° |
| 2026-05-05 04:56 | 35.55289 | 139.79056 | 33 ft | 1 kts | 60° |
| 2026-05-05 04:56 | 35.55296 | 139.79071 | 33 ft | 2 kts | 60° |
| 2026-05-05 04:56 | 35.55300 | 139.79079 | 33 ft | 1 kts | 60° |
| 2026-05-05 04:57 | 35.55300 | 139.79080 | 33 ft | 0 kts | 60° |